Time;durP1;ratioP1;P1;durP2;ratioP2;P2;SDS_P1;SDS_P2;PMS_P1;PMS_P2;Temp;Humidity;BMP_temperature;BMP_pressure;BME280_temperature;BME280_humidity;BME280_pressure;Samples;Min_cycle;Max_cycle;Signal;HPM_P1;HPM_P2
2021/06/07 00:03:50;;;;;;;11.32;5.60;;;;;;;;;;5034415;28;20479;-67
2021/06/07 00:06:17;;;;;;;8.30;5.00;;;;;;;;;;5034456;28;20502;-66
2021/06/07 00:08:55;;;;;;;12.50;5.88;;;;;;;;;;5031709;28;20021;-66
2021/06/07 00:22:32;;;;;;;10.23;5.30;;;;;;;;;;5159118;23;20055;-67
2021/06/07 00:27:52;;;;;;;10.27;4.95;;;;;;;;;;5095031;23;20443;-67
2021/06/07 00:30:18;;;;;;;10.25;4.68;;;;;;;;;;5013225;28;20488;-67
2021/06/07 00:38:34;;;;;;;8.73;5.47;;;;;;;;;;5012219;28;20042;-66
2021/06/07 00:49:57;;;;;;;8.52;5.72;;;;;;;;;;4965521;28;20038;-66
2021/06/07 00:52:24;;;;;;;7.85;5.72;;;;;;;;;;5010126;28;20022;-66
2021/06/07 00:54:50;;;;;;;12.43;5.80;;;;;;;;;;5013219;28;20056;-66
2021/06/07 00:57:16;;;;;;;8.60;5.60;;;;;;;;;;5008235;28;20034;-66
2021/06/07 01:00:03;;;;;;;9.68;5.18;;;;;;;;;;5012159;28;20064;-66
2021/06/07 01:02:31;;;;;;;8.73;5.28;;;;;;;;;;5010754;28;20496;-60
2021/06/07 01:08:18;;;;;;;11.63;5.65;;;;;;;;;;5010897;28;20060;-60
2021/06/07 01:10:51;;;;;;;10.05;6.13;;;;;;;;;;5012613;28;20022;-60
2021/06/07 01:13:22;;;;;;;8.93;5.60;;;;;;;;;;5012323;28;20033;-60
2021/06/07 01:15:52;;;;;;;9.50;6.05;;;;;;;;;;5011740;28;20109;-60
2021/06/07 01:18:20;;;;;;;10.18;5.75;;;;;;;;;;5001350;28;20534;-60
2021/06/07 01:20:46;;;;;;;;;;;;;;;;;;4997661;28;20041;-61
2021/06/07 01:23:12;;;;;;;13.93;5.53;;;;;;;;;;5013060;28;19909;-60
2021/06/07 01:25:39;;;;;;;11.52;5.68;;;;;;;;;;5007753;28;20034;-60
2021/06/07 01:28:06;;;;;;;11.87;5.30;;;;;;;;;;5012642;28;20100;-60
2021/06/07 01:30:33;;;;;;;9.48;5.57;;;;;;;;;;5009235;28;20292;-60
2021/06/07 01:33:03;;;;;;;11.67;5.60;;;;;;;;;;5011093;28;20069;-60
2021/06/07 01:35:29;;;;;;;8.73;5.70;;;;;;;;;;5010471;28;20485;-60
2021/06/07 01:37:56;;;;;;;8.50;5.43;;;;;;;;;;5012217;28;20111;-60
2021/06/07 01:40:24;;;;;;;7.13;5.40;;;;;;;;;;5012038;28;20033;-60
2021/06/07 01:43:03;;;;;;;10.57;5.70;;;;;;;;;;5012358;28;20596;-60
2021/06/07 01:48:43;;;;;;;12.65;6.15;;;;;;;;;;5010824;28;20146;-62
2021/06/07 01:51:36;;;;;;;10.95;5.50;;;;;;;;;;5010921;28;20057;-62
2021/06/07 01:57:27;;;;;;;10.40;6.00;;;;;;;;;;4934488;29;20047;-62
2021/06/07 02:00:30;;;;;;;8.40;6.22;;;;;;;;;;4930829;29;20403;-62
2021/06/07 02:05:58;;;;;;;9.55;6.05;;;;;;;;;;4931518;29;20168;-62
2021/06/07 02:17:22;;;;;;;9.00;5.88;;;;;;;;;;5161095;23;20575;-60
2021/06/07 02:19:48;;;;;;;11.55;6.18;;;;;;;;;;5016602;28;20125;-62
2021/06/07 02:32:39;;;;;;;9.07;5.50;;;;;;;;;;4524619;23;20053;-62
2021/06/07 02:35:06;;;;;;;11.10;5.63;;;;;;;;;;5030590;28;20026;-62
2021/06/07 02:37:32;;;;;;;8.30;5.43;;;;;;;;;;5027952;28;20079;-62
2021/06/07 02:39:58;;;;;;;9.93;6.38;;;;;;;;;;5027912;28;20072;-60
2021/06/07 02:42:27;;;;;;;11.90;6.68;;;;;;;;;;5027897;28;20459;-62
2021/06/07 02:53:09;;;;;;;11.52;7.32;;;;;;;;;;4520892;23;20068;-60
2021/06/07 02:55:36;;;;;;;12.75;6.97;;;;;;;;;;5031433;28;20036;-60
2021/06/07 02:58:05;;;;;;;15.05;6.90;;;;;;;;;;5037252;28;20448;-60
2021/06/07 03:00:48;;;;;;;12.73;6.82;;;;;;;;;;5027867;28;20046;-60
2021/06/07 03:03:39;;;;;;;10.82;6.85;;;;;;;;;;5036490;28;20029;-60
2021/06/07 03:12:31;;;;;;;9.90;6.15;;;;;;;;;;5148367;23;20060;-62
2021/06/07 03:14:57;;;;;;;12.45;6.18;;;;;;;;;;5013282;28;20125;-61
2021/06/07 03:17:23;;;;;;;10.30;5.78;;;;;;;;;;5014713;28;20520;-61
2021/06/07 03:19:49;;;;;;;10.50;6.70;;;;;;;;;;5012007;28;20096;-61
2021/06/07 03:22:20;;;;;;;9.48;6.70;;;;;;;;;;5012013;28;20105;-62
2021/06/07 03:24:46;;;;;;;10.80;6.30;;;;;;;;;;5011994;28;20084;-62
2021/06/07 03:27:12;;;;;;;9.77;6.20;;;;;;;;;;5013980;28;20105;-61
2021/06/07 03:29:38;;;;;;;8.35;6.05;;;;;;;;;;5015515;28;20113;-62
2021/06/07 03:32:05;;;;;;;8.82;6.25;;;;;;;;;;5022658;28;20035;-61
2021/06/07 03:34:31;;;;;;;12.20;6.70;;;;;;;;;;5020313;28;20420;-61
2021/06/07 03:36:56;;;;;;;12.73;6.47;;;;;;;;;;5020681;28;20060;-61
2021/06/07 03:39:22;;;;;;;11.00;6.63;;;;;;;;;;5023599;28;20395;-61
2021/06/07 03:41:48;;;;;;;10.52;6.72;;;;;;;;;;5020983;28;20108;-61
2021/06/07 03:44:14;;;;;;;10.95;6.80;;;;;;;;;;5020934;28;20037;-61
2021/06/07 03:46:40;;;;;;;9.98;6.63;;;;;;;;;;5013965;28;20344;-62
2021/06/07 03:49:06;;;;;;;14.98;7.05;;;;;;;;;;5013746;28;20026;-63
2021/06/07 03:51:33;;;;;;;9.98;6.65;;;;;;;;;;5014248;28;20481;-61
2021/06/07 03:53:59;;;;;;;8.57;6.60;;;;;;;;;;5014387;28;20018;-62
2021/06/07 03:56:25;;;;;;;10.75;6.97;;;;;;;;;;5014247;28;20101;-61
2021/06/07 03:58:51;;;;;;;10.82;7.35;;;;;;;;;;5014408;28;20133;-62
2021/06/07 04:01:17;;;;;;;12.13;7.10;;;;;;;;;;5013722;28;20041;-62
2021/06/07 04:03:43;;;;;;;12.20;6.93;;;;;;;;;;5013570;28;20537;-60
2021/06/07 04:06:09;;;;;;;10.13;6.53;;;;;;;;;;5013939;28;20109;-61
2021/06/07 04:08:35;;;;;;;9.80;6.90;;;;;;;;;;5013000;28;20030;-60
2021/06/07 04:11:01;;;;;;;8.85;5.63;;;;;;;;;;5014346;28;20030;-60
2021/06/07 04:13:27;;;;;;;9.68;6.05;;;;;;;;;;5013933;28;20611;-60
2021/06/07 04:15:53;;;;;;;9.50;6.28;;;;;;;;;;5013861;28;20064;-60
2021/06/07 04:18:19;;;;;;;9.07;6.72;;;;;;;;;;5013442;28;20026;-60
2021/06/07 04:20:45;;;;;;;10.18;6.43;;;;;;;;;;5013455;28;20350;-60
2021/06/07 04:23:11;;;;;;;10.05;6.47;;;;;;;;;;5014503;28;20025;-60
2021/06/07 04:25:37;;;;;;;9.90;5.95;;;;;;;;;;4993407;28;20543;-60
2021/06/07 04:28:04;;;;;;;9.60;6.15;;;;;;;;;;5013359;28;20477;-60
2021/06/07 04:30:31;;;;;;;11.10;6.38;;;;;;;;;;5013704;28;20033;-60
2021/06/07 04:32:58;;;;;;;9.70;6.03;;;;;;;;;;5013049;28;20101;-60
2021/06/07 04:35:25;;;;;;;11.50;6.90;;;;;;;;;;5013970;28;20413;-60
2021/06/07 04:37:53;;;;;;;10.85;6.45;;;;;;;;;;5012530;28;20021;-60
2021/06/07 04:40:20;;;;;;;9.02;6.18;;;;;;;;;;5013308;28;20056;-60
2021/06/07 04:42:47;;;;;;;7.00;5.68;;;;;;;;;;5013423;28;20097;-60
2021/06/07 04:45:13;;;;;;;13.05;6.15;;;;;;;;;;5013629;28;20045;-60
2021/06/07 04:47:39;;;;;;;8.63;5.75;;;;;;;;;;5012857;28;20074;-60
2021/06/07 04:50:07;;;;;;;10.05;6.10;;;;;;;;;;5013683;28;20030;-60
2021/06/07 04:52:34;;;;;;;9.15;5.53;;;;;;;;;;5013204;28;20126;-60
2021/06/07 04:55:00;;;;;;;8.73;5.78;;;;;;;;;;5012813;28;20127;-60
2021/06/07 04:57:25;;;;;;;11.07;6.50;;;;;;;;;;5012971;28;20076;-60
2021/06/07 04:59:52;;;;;;;8.45;6.40;;;;;;;;;;5012970;28;20061;-60
2021/06/07 05:02:18;;;;;;;11.00;6.93;;;;;;;;;;4992722;28;20029;-60
2021/06/07 05:04:44;;;;;;;11.80;7.00;;;;;;;;;;5012382;28;20034;-60
2021/06/07 05:07:10;;;;;;;11.77;7.00;;;;;;;;;;5012728;28;20033;-60
2021/06/07 05:09:35;;;;;;;13.60;7.05;;;;;;;;;;5012888;28;20038;-60
2021/06/07 05:12:05;;;;;;;9.43;6.38;;;;;;;;;;5012856;28;20092;-60
2021/06/07 05:14:31;;;;;;;12.90;6.78;;;;;;;;;;5012533;28;20519;-61
2021/06/07 05:16:57;;;;;;;8.30;6.32;;;;;;;;;;5012577;28;20105;-61
2021/06/07 05:19:23;;;;;;;10.48;6.72;;;;;;;;;;5012523;28;20121;-61
2021/06/07 05:21:49;;;;;;;11.68;6.60;;;;;;;;;;5012417;28;20392;-61
2021/06/07 05:24:15;;;;;;;13.88;7.03;;;;;;;;;;5011862;28;20030;-61
2021/06/07 05:26:41;;;;;;;10.35;6.53;;;;;;;;;;5012732;28;20164;-61
2021/06/07 05:29:07;;;;;;;10.35;6.78;;;;;;;;;;5013197;28;20057;-62
2021/06/07 05:31:33;;;;;;;15.52;6.85;;;;;;;;;;5012330;28;20030;-62
2021/06/07 05:33:59;;;;;;;9.98;6.38;;;;;;;;;;5012088;28;20033;-62
2021/06/07 05:36:25;;;;;;;7.80;5.25;;;;;;;;;;5011922;28;20145;-62
2021/06/07 05:38:51;;;;;;;6.63;4.93;;;;;;;;;;5012421;28;20145;-63
2021/06/07 05:41:17;;;;;;;11.68;4.93;;;;;;;;;;5013115;28;20026;-62
2021/06/07 05:43:43;;;;;;;8.70;4.60;;;;;;;;;;5012029;28;20022;-63
2021/06/07 05:46:09;;;;;;;10.45;4.18;;;;;;;;;;5011851;28;20136;-61
2021/06/07 05:48:35;;;;;;;8.07;4.85;;;;;;;;;;4990340;28;20062;-61
2021/06/07 05:51:01;;;;;;;9.07;4.75;;;;;;;;;;5012207;28;20091;-60
2021/06/07 05:53:27;;;;;;;5.78;4.25;;;;;;;;;;5011983;28;20096;-60
2021/06/07 05:55:53;;;;;;;6.88;4.10;;;;;;;;;;5012323;28;20030;-61
2021/06/07 05:58:20;;;;;;;9.93;4.50;;;;;;;;;;5012110;28;20026;-60
2021/06/07 06:00:47;;;;;;;7.57;4.57;;;;;;;;;;5011935;28;20038;-61
2021/06/07 06:03:13;;;;;;;8.48;4.18;;;;;;;;;;5012348;28;20272;-61
2021/06/07 06:05:40;;;;;;;8.48;3.88;;;;;;;;;;5011584;28;20034;-61
2021/06/07 06:08:06;;;;;;;8.85;3.90;;;;;;;;;;5012517;28;20018;-61
2021/06/07 06:10:33;;;;;;;6.43;3.28;;;;;;;;;;4991545;28;20080;-61
2021/06/07 06:12:59;;;;;;;6.03;3.83;;;;;;;;;;5011695;28;20568;-61
2021/06/07 06:15:25;;;;;;;6.93;3.70;;;;;;;;;;5011331;28;20112;-61
2021/06/07 06:17:51;;;;;;;5.85;3.60;;;;;;;;;;5011420;28;20022;-61
2021/06/07 06:20:17;;;;;;;6.88;3.90;;;;;;;;;;5011954;28;20087;-61
2021/06/07 06:22:45;;;;;;;7.07;3.42;;;;;;;;;;4991831;28;20109;-61
2021/06/07 06:25:11;;;;;;;5.95;3.38;;;;;;;;;;5011548;28;20026;-61
2021/06/07 06:27:38;;;;;;;8.82;3.63;;;;;;;;;;5011486;28;20021;-62
2021/06/07 06:30:06;;;;;;;6.28;3.28;;;;;;;;;;5011050;28;20133;-61
2021/06/07 06:32:32;;;;;;;9.32;3.60;;;;;;;;;;5010662;28;20026;-61
2021/06/07 06:34:58;;;;;;;9.60;3.55;;;;;;;;;;5012012;28;20029;-62
2021/06/07 06:37:24;;;;;;;7.70;3.22;;;;;;;;;;5011476;28;20026;-61
2021/06/07 06:39:50;;;;;;;5.32;3.22;;;;;;;;;;5011290;28;20084;-61
2021/06/07 06:42:16;;;;;;;5.97;3.25;;;;;;;;;;5011344;28;20477;-61
2021/06/07 06:44:42;;;;;;;5.47;3.35;;;;;;;;;;5010835;28;20091;-61
2021/06/07 06:47:08;;;;;;;5.57;3.38;;;;;;;;;;5010490;28;20530;-61
2021/06/07 06:49:36;;;;;;;7.90;3.00;;;;;;;;;;5011315;28;20033;-61
2021/06/07 06:52:02;;;;;;;4.50;2.85;;;;;;;;;;5010978;28;20053;-61
2021/06/07 06:54:28;;;;;;;7.07;3.10;;;;;;;;;;5011345;28;20026;-61
2021/06/07 06:56:54;;;;;;;7.35;3.60;;;;;;;;;;5010990;28;20408;-62
2021/06/07 06:59:20;;;;;;;5.30;3.03;;;;;;;;;;5011341;28;20026;-61
2021/06/07 07:01:46;;;;;;;5.80;2.95;;;;;;;;;;5011551;28;20029;-61
2021/06/07 07:04:12;;;;;;;6.72;3.67;;;;;;;;;;5011097;28;20045;-62
2021/06/07 07:06:38;;;;;;;7.20;2.88;;;;;;;;;;5010508;28;20033;-62
2021/06/07 07:09:04;;;;;;;10.00;3.10;;;;;;;;;;5011364;28;20033;-62
2021/06/07 07:11:30;;;;;;;6.53;2.95;;;;;;;;;;5011220;28;20033;-62
2021/06/07 07:13:57;;;;;;;7.60;2.90;;;;;;;;;;5011117;28;20042;-62
2021/06/07 07:16:23;;;;;;;6.03;3.10;;;;;;;;;;5010998;28;20088;-61
2021/06/07 07:18:49;;;;;;;6.95;2.72;;;;;;;;;;5010818;28;20025;-62
2021/06/07 07:21:15;;;;;;;5.30;2.55;;;;;;;;;;5010947;28;20456;-62
2021/06/07 07:23:41;;;;;;;4.47;2.65;;;;;;;;;;5011130;28;20362;-62
2021/06/07 07:26:07;;;;;;;5.60;3.03;;;;;;;;;;5011465;28;20041;-61
2021/06/07 07:28:33;;;;;;;6.63;2.92;;;;;;;;;;5010882;28;20730;-62
2021/06/07 07:30:59;;;;;;;5.78;3.20;;;;;;;;;;5010268;28;20041;-62
2021/06/07 07:33:25;;;;;;;9.30;3.05;;;;;;;;;;5011000;28;20034;-61
2021/06/07 07:35:51;;;;;;;5.68;3.00;;;;;;;;;;5010759;28;20026;-62
2021/06/07 07:38:17;;;;;;;6.90;2.97;;;;;;;;;;5011614;28;20033;-61
2021/06/07 07:40:45;;;;;;;4.45;2.75;;;;;;;;;;5009308;28;20046;-61
2021/06/07 07:43:11;;;;;;;;;;;;;;;;;;5012404;28;20461;-62
2021/06/07 07:45:38;;;;;;;7.55;3.10;;;;;;;;;;5013884;28;19917;-62
2021/06/07 07:48:06;;;;;;;6.78;2.90;;;;;;;;;;5014499;28;20170;-61
2021/06/07 07:50:35;;;;;;;;;;;;;;;;;;5014695;28;20030;-62
2021/06/07 07:53:01;;;;;;;6.35;2.85;;;;;;;;;;5013571;28;19905;-61
2021/06/07 07:55:30;;;;;;;4.25;2.70;;;;;;;;;;5013924;28;20029;-62
2021/06/07 07:57:56;;;;;;;4.53;3.10;;;;;;;;;;5013337;28;20030;-62
2021/06/07 08:00:24;;;;;;;5.43;2.92;;;;;;;;;;5014094;28;20112;-62
2021/06/07 08:02:50;;;;;;;;;;;;;;;;;;5014300;28;20484;-62
2021/06/07 08:05:16;;;;;;;5.35;3.00;;;;;;;;;;5014925;28;20000;-62
2021/06/07 08:07:42;;;;;;;6.75;3.30;;;;;;;;;;5013981;28;20150;-62
2021/06/07 08:10:09;;;;;;;5.03;2.92;;;;;;;;;;4993555;28;20018;-62
2021/06/07 08:12:35;;;;;;;5.38;2.72;;;;;;;;;;5013071;28;20034;-62
2021/06/07 08:15:01;;;;;;;5.85;3.38;;;;;;;;;;5013852;28;20449;-62
2021/06/07 08:17:27;;;;;;;4.72;2.78;;;;;;;;;;5014126;28;20365;-62
2021/06/07 08:19:53;;;;;;;5.28;2.95;;;;;;;;;;5013781;28;20167;-62
2021/06/07 08:22:19;;;;;;;8.20;3.28;;;;;;;;;;5013748;28;20504;-62
2021/06/07 08:24:45;;;;;;;8.37;3.03;;;;;;;;;;5013695;28;20446;-62
2021/06/07 08:27:11;;;;;;;5.03;3.17;;;;;;;;;;5013724;28;20033;-62
2021/06/07 08:29:37;;;;;;;6.60;3.00;;;;;;;;;;5013583;28;20358;-62
2021/06/07 08:32:04;;;;;;;5.43;2.92;;;;;;;;;;5014313;28;20045;-62
2021/06/07 08:34:30;;;;;;;10.52;3.25;;;;;;;;;;5013234;28;20026;-62
2021/06/07 08:36:56;;;;;;;7.43;2.97;;;;;;;;;;5013585;28;20025;-62
2021/06/07 08:39:22;;;;;;;7.30;2.70;;;;;;;;;;5012972;28;20084;-62
2021/06/07 08:41:48;;;;;;;6.57;2.90;;;;;;;;;;5013382;28;20034;-62
2021/06/07 08:44:14;;;;;;;6.22;3.15;;;;;;;;;;5013964;28;20161;-62
2021/06/07 08:46:40;;;;;;;6.68;3.10;;;;;;;;;;5011667;28;20022;-62
2021/06/07 08:49:06;;;;;;;5.88;3.15;;;;;;;;;;5013427;28;20030;-62
2021/06/07 08:51:33;;;;;;;7.82;2.88;;;;;;;;;;5013183;28;20064;-62
2021/06/07 08:53:59;;;;;;;6.85;3.05;;;;;;;;;;5012021;28;20499;-63
2021/06/07 08:56:25;;;;;;;5.95;3.10;;;;;;;;;;5013520;28;20030;-63
2021/06/07 08:58:51;;;;;;;9.27;3.13;;;;;;;;;;5012997;28;20061;-63
2021/06/07 09:01:17;;;;;;;4.93;3.00;;;;;;;;;;5013206;28;20481;-62
2021/06/07 09:03:43;;;;;;;6.65;3.47;;;;;;;;;;5012782;28;20104;-62
2021/06/07 09:06:09;;;;;;;6.07;3.00;;;;;;;;;;5013185;28;20029;-62
2021/06/07 09:08:37;;;;;;;7.75;3.20;;;;;;;;;;5012495;28;20084;-62
2021/06/07 09:11:08;;;;;;;5.85;3.40;;;;;;;;;;5013662;28;20050;-62
2021/06/07 09:13:34;;;;;;;5.97;3.30;;;;;;;;;;5012681;28;20046;-62
2021/06/07 09:16:01;;;;;;;5.65;3.15;;;;;;;;;;5012311;28;20029;-62
2021/06/07 09:18:27;;;;;;;7.10;3.10;;;;;;;;;;5012694;28;20481;-62
2021/06/07 09:20:58;;;;;;;6.03;3.13;;;;;;;;;;5012740;28;20037;-62
2021/06/07 09:23:24;;;;;;;5.10;2.50;;;;;;;;;;5012444;28;20026;-62
2021/06/07 09:25:50;;;;;;;5.93;2.85;;;;;;;;;;5010442;28;20084;-62
2021/06/07 09:28:21;;;;;;;7.90;2.90;;;;;;;;;;5012165;28;20026;-62
2021/06/07 09:30:54;;;;;;;3.90;2.45;;;;;;;;;;5012290;28;20026;-62
2021/06/07 09:33:20;;;;;;;5.93;2.42;;;;;;;;;;5012448;28;20113;-62
2021/06/07 09:35:48;;;;;;;5.30;2.28;;;;;;;;;;5012417;28;20061;-62
2021/06/07 09:38:14;;;;;;;4.28;2.05;;;;;;;;;;5012856;28;20029;-62
2021/06/07 09:40:40;;;;;;;4.93;2.60;;;;;;;;;;5011561;28;20049;-62
2021/06/07 09:43:06;;;;;;;5.88;2.50;;;;;;;;;;5012120;28;20381;-61
2021/06/07 09:45:50;;;;;;;4.18;2.35;;;;;;;;;;5012112;28;20037;-61
2021/06/07 09:48:17;;;;;;;3.70;2.30;;;;;;;;;;5012375;28;20377;-62
2021/06/07 09:51:03;;;;;;;2.65;1.92;;;;;;;;;;5012166;28;20420;-61
2021/06/07 09:53:52;;;;;;;3.63;2.00;;;;;;;;;;5008702;28;20197;-61
2021/06/07 09:56:18;;;;;;;5.97;2.20;;;;;;;;;;5008640;28;20022;-61
2021/06/07 09:58:46;;;;;;;9.70;2.38;;;;;;;;;;5012183;28;20109;-61
2021/06/07 10:01:14;;;;;;;6.88;2.22;;;;;;;;;;5011742;28;20397;-62
2021/06/07 10:03:44;;;;;;;3.78;2.30;;;;;;;;;;5011977;28;20072;-62
2021/06/07 10:06:19;;;;;;;5.22;2.05;;;;;;;;;;5010189;28;20025;-61
2021/06/07 10:08:46;;;;;;;3.90;2.05;;;;;;;;;;5011609;28;20029;-62
2021/06/07 10:11:19;;;;;;;4.75;2.30;;;;;;;;;;5012667;28;20025;-62
2021/06/07 10:13:45;;;;;;;3.20;2.10;;;;;;;;;;5012047;28;20057;-62
2021/06/07 10:16:11;;;;;;;11.43;2.45;;;;;;;;;;5011644;28;20028;-62
2021/06/07 10:18:38;;;;;;;4.32;1.90;;;;;;;;;;5011271;28;20117;-61
2021/06/07 10:21:08;;;;;;;4.28;2.00;;;;;;;;;;5011525;28;20037;-61
2021/06/07 10:23:34;;;;;;;4.10;2.00;;;;;;;;;;5011668;28;20029;-62
2021/06/07 10:26:01;;;;;;;4.68;2.00;;;;;;;;;;5010217;28;20026;-62
2021/06/07 10:28:32;;;;;;;4.05;2.10;;;;;;;;;;5011237;28;20476;-61
2021/06/07 10:30:59;;;;;;;4.25;1.85;;;;;;;;;;5011369;28;20096;-61
2021/06/07 10:33:28;;;;;;;3.80;1.95;;;;;;;;;;5010886;28;20038;-61
2021/06/07 10:35:55;;;;;;;6.70;2.53;;;;;;;;;;5011184;28;20374;-61
2021/06/07 10:38:37;;;;;;;4.10;2.10;;;;;;;;;;5011365;28;20029;-61
2021/06/07 10:41:22;;;;;;;5.90;2.42;;;;;;;;;;5010077;28;20339;-61
2021/06/07 10:43:49;;;;;;;7.40;2.40;;;;;;;;;;5011551;28;20373;-61
2021/06/07 10:46:28;;;;;;;4.22;2.78;;;;;;;;;;5010829;28;20476;-62
2021/06/07 10:48:56;;;;;;;6.95;3.00;;;;;;;;;;5011384;28;20034;-62
2021/06/07 10:51:23;;;;;;;7.72;3.20;;;;;;;;;;5011061;28;20515;-61
2021/06/07 10:53:52;;;;;;;6.72;2.60;;;;;;;;;;5010928;28;20369;-61
2021/06/07 10:56:21;;;;;;;4.05;2.42;;;;;;;;;;5008383;28;20045;-62
2021/06/07 10:59:10;;;;;;;4.53;3.13;;;;;;;;;;5010662;28;20041;-62
2021/06/07 11:01:50;;;;;;;5.63;3.08;;;;;;;;;;5010478;28;20045;-62
2021/06/07 11:04:32;;;;;;;6.28;2.90;;;;;;;;;;5010552;28;20436;-61
2021/06/07 11:07:07;;;;;;;4.93;2.78;;;;;;;;;;5011132;28;20022;-61
2021/06/07 11:09:34;;;;;;;6.10;2.90;;;;;;;;;;5010718;28;20037;-62
2021/06/07 11:12:03;;;;;;;6.90;2.95;;;;;;;;;;5010807;28;20542;-62
2021/06/07 11:14:29;;;;;;;5.78;2.70;;;;;;;;;;5010823;28;20111;-62
2021/06/07 11:16:55;;;;;;;3.97;2.65;;;;;;;;;;5011698;28;20484;-62
2021/06/07 11:19:30;;;;;;;6.28;2.50;;;;;;;;;;5014407;28;20080;-62
2021/06/07 11:22:28;;;;;;;4.80;2.70;;;;;;;;;;4994488;28;20030;-62
2021/06/07 11:27:57;;;;;;;4.97;2.85;;;;;;;;;;5016559;28;20071;-62
2021/06/07 11:30:24;;;;;;;5.78;2.53;;;;;;;;;;5024967;28;20054;-62
2021/06/07 11:32:50;;;;;;;4.68;2.50;;;;;;;;;;5036599;23;20113;-94
2021/06/07 11:35:35;;;;;;;3.67;2.42;;;;;;;;;;4991613;28;20037;-94
2021/06/07 11:38:21;;;;;;;5.00;2.70;;;;;;;;;;5036347;28;20017;-93
2021/06/07 11:40:47;;;;;;;7.18;2.67;;;;;;;;;;4979363;28;20067;-94
2021/06/07 11:43:13;;;;;;;5.53;2.50;;;;;;;;;;5019562;23;20054;-62
2021/06/07 11:45:40;;;;;;;6.85;3.33;;;;;;;;;;5033915;23;20049;-93
2021/06/07 11:48:06;;;;;;;5.97;3.00;;;;;;;;;;5074788;22;20234;-62
2021/06/07 11:50:33;;;;;;;6.25;2.75;;;;;;;;;;5055307;28;20269;-62
2021/06/07 11:53:12;;;;;;;9.25;3.30;;;;;;;;;;5056934;28;20490;-62
2021/06/07 11:55:38;;;;;;;4.38;3.15;;;;;;;;;;5054546;28;20032;-62
2021/06/07 11:58:15;;;;;;;7.70;3.03;;;;;;;;;;5034109;28;20017;-62
2021/06/07 12:01:01;;;;;;;5.55;3.15;;;;;;;;;;5051474;28;20487;-62
2021/06/07 12:03:28;;;;;;;4.82;2.90;;;;;;;;;;5046393;28;20064;-62
2021/06/07 12:05:55;;;;;;;6.28;3.10;;;;;;;;;;5046711;28;20025;-62
2021/06/07 12:08:22;;;;;;;5.53;2.80;;;;;;;;;;5048512;28;20021;-62
2021/06/07 12:10:58;;;;;;;5.57;2.72;;;;;;;;;;5050808;28;20055;-62
2021/06/07 12:13:30;;;;;;;3.42;2.60;;;;;;;;;;5049014;28;20146;-62
2021/06/07 12:16:08;;;;;;;6.40;2.80;;;;;;;;;;5050843;28;20037;-61
2021/06/07 12:18:43;;;;;;;4.38;2.65;;;;;;;;;;5049867;28;20048;-62
2021/06/07 12:21:11;;;;;;;4.50;2.90;;;;;;;;;;5047724;28;20048;-62
2021/06/07 12:23:45;;;;;;;4.57;2.75;;;;;;;;;;5047732;28;20020;-61
2021/06/07 12:29:41;;;;;;;5.93;2.83;;;;;;;;;;5045577;28;20075;-62
2021/06/07 12:32:21;;;;;;;4.75;2.92;;;;;;;;;;5047765;28;20105;-61
2021/06/07 12:34:59;;;;;;;4.70;3.05;;;;;;;;;;5048845;28;20021;-62
2021/06/07 12:37:27;;;;;;;4.13;2.75;;;;;;;;;;5048006;28;20112;-61
2021/06/07 12:40:12;;;;;;;5.32;2.58;;;;;;;;;;5048765;28;20032;-62
2021/06/07 12:42:39;;;;;;;6.03;2.80;;;;;;;;;;5047936;28;20025;-62
2021/06/07 12:45:28;;;;;;;12.30;2.88;;;;;;;;;;5050662;28;20056;-62
2021/06/07 12:47:55;;;;;;;4.07;2.42;;;;;;;;;;5047132;28;20045;-62
2021/06/07 12:50:23;;;;;;;6.55;2.75;;;;;;;;;;5069328;28;20386;-61
2021/06/07 12:52:54;;;;;;;4.95;2.92;;;;;;;;;;5062716;28;20028;-62
2021/06/07 12:55:21;;;;;;;5.28;2.70;;;;;;;;;;5061105;28;20025;-61
2021/06/07 12:57:48;;;;;;;4.78;2.92;;;;;;;;;;5061539;28;20021;-61
2021/06/07 13:00:49;;;;;;;6.43;2.65;;;;;;;;;;5062188;28;20037;-61
2021/06/07 13:03:20;;;;;;;6.38;2.55;;;;;;;;;;4988747;28;20163;-61
2021/06/07 13:05:46;;;;;;;4.68;2.90;;;;;;;;;;5040674;28;20207;-61
2021/06/07 13:08:21;;;;;;;6.30;3.00;;;;;;;;;;5052655;28;20021;-61
2021/06/07 13:10:54;;;;;;;5.60;2.50;;;;;;;;;;5051856;28;20025;-61
2021/06/07 13:13:22;;;;;;;4.25;2.60;;;;;;;;;;5048337;28;20097;-62
2021/06/07 13:16:01;;;;;;;6.30;2.75;;;;;;;;;;5050442;28;20090;-61
2021/06/07 13:18:28;;;;;;;4.38;2.60;;;;;;;;;;5049415;28;20021;-61
2021/06/07 13:21:05;;;;;;;4.18;2.58;;;;;;;;;;5050988;28;20050;-61
2021/06/07 13:23:34;;;;;;;5.03;2.72;;;;;;;;;;5052247;28;20021;-61
2021/06/07 13:26:17;;;;;;;5.75;2.90;;;;;;;;;;5052088;28;20025;-61
2021/06/07 13:29:17;;;;;;;5.57;2.97;;;;;;;;;;5050278;28;20032;-61
2021/06/07 13:31:47;;;;;;;7.60;3.35;;;;;;;;;;5041200;23;20057;-86
2021/06/07 13:34:14;;;;;;;5.10;2.90;;;;;;;;;;5008845;28;20061;-89
2021/06/07 13:36:40;;;;;;;5.30;2.85;;;;;;;;;;5034098;28;20133;-88
2021/06/07 13:39:06;;;;;;;6.07;2.67;;;;;;;;;;5034902;28;20041;-88
2021/06/07 13:41:32;;;;;;;5.60;2.75;;;;;;;;;;5045235;28;20573;-89
2021/06/07 13:43:59;;;;;;;6.28;2.97;;;;;;;;;;5014670;28;20017;-88
2021/06/07 13:46:26;;;;;;;7.38;3.28;;;;;;;;;;5009069;28;20037;-89
2021/06/07 13:48:52;;;;;;;5.60;3.03;;;;;;;;;;5025284;28;20041;-88
2021/06/07 13:51:32;;;;;;;9.82;3.10;;;;;;;;;;5043055;28;20036;-89
2021/06/07 13:54:11;;;;;;;4.43;2.83;;;;;;;;;;5007206;28;20025;-89
2021/06/07 13:56:39;;;;;;;6.88;3.08;;;;;;;;;;5008773;28;20024;-89
2021/06/07 13:59:06;;;;;;;5.72;3.13;;;;;;;;;;5033185;28;20029;-88
2021/06/07 14:01:35;;;;;;;5.70;3.40;;;;;;;;;;5026423;28;20037;-86
2021/06/07 14:04:02;;;;;;;5.63;2.88;;;;;;;;;;5023656;28;20072;-89
2021/06/07 14:06:28;;;;;;;;;;;;;;;;;;5006417;28;20185;-89
2021/06/07 14:08:56;;;;;;;4.95;2.75;;;;;;;;;;5013158;28;19920;-88
2021/06/07 14:11:24;;;;;;;4.55;2.25;;;;;;;;;;5008136;28;20029;-88
2021/06/07 14:13:50;;;;;;;5.10;2.95;;;;;;;;;;5016242;28;20028;-89
2021/06/07 14:16:16;;;;;;;4.13;2.58;;;;;;;;;;5040328;28;20084;-89
2021/06/07 14:18:42;;;;;;;3.58;2.38;;;;;;;;;;5037873;28;20067;-88
2021/06/07 14:21:11;;;;;;;4.65;2.40;;;;;;;;;;5021044;28;20037;-88
2021/06/07 14:26:23;;;;;;;7.35;2.88;;;;;;;;;;5046521;28;20080;-88
2021/06/07 14:28:49;;;;;;;3.20;2.60;;;;;;;;;;5041535;28;20024;-88
2021/06/07 14:31:16;;;;;;;4.53;2.50;;;;;;;;;;5029046;28;20058;-88
2021/06/07 14:33:42;;;;;;;5.88;2.22;;;;;;;;;;5002461;28;20033;-88
2021/06/07 14:36:10;;;;;;;3.22;2.28;;;;;;;;;;5017039;28;20022;-88
2021/06/07 14:38:36;;;;;;;;;;;;;;;;;;5030539;28;20025;-89
2021/06/07 14:41:05;;;;;;;3.20;2.30;;;;;;;;;;5008827;28;19913;-89
2021/06/07 14:43:32;;;;;;;3.83;2.45;;;;;;;;;;5023222;28;20018;-89
2021/06/07 14:45:58;;;;;;;4.00;2.17;;;;;;;;;;5034225;28;20067;-88
2021/06/07 14:48:25;;;;;;;5.18;2.50;;;;;;;;;;4998443;28;20503;-89
2021/06/07 14:50:51;;;;;;;3.70;2.38;;;;;;;;;;5000627;28;20086;-88
2021/06/07 14:53:17;;;;;;;4.57;2.30;;;;;;;;;;5018400;28;20050;-89
2021/06/07 14:55:44;;;;;;;2.95;1.92;;;;;;;;;;5012544;28;20054;-88
2021/06/07 14:58:09;;;;;;;6.38;2.40;;;;;;;;;;5012523;28;20021;-89
2021/06/07 15:00:36;;;;;;;4.38;2.45;;;;;;;;;;5028932;28;20045;-89
2021/06/07 15:03:02;;;;;;;4.05;2.65;;;;;;;;;;5004499;28;20037;-88
2021/06/07 15:05:28;;;;;;;3.35;2.38;;;;;;;;;;4994605;28;20042;-88
2021/06/07 15:07:54;;;;;;;5.22;2.40;;;;;;;;;;5006335;28;20056;-89
2021/06/07 15:10:20;;;;;;;3.35;2.05;;;;;;;;;;5020596;28;20030;-89
2021/06/07 15:12:46;;;;;;;3.42;2.20;;;;;;;;;;5001102;28;20041;-88
2021/06/07 15:15:12;;;;;;;4.88;2.70;;;;;;;;;;5004330;28;20049;-89
2021/06/07 15:17:38;;;;;;;4.47;2.58;;;;;;;;;;5011606;28;20010;-90
2021/06/07 15:20:05;;;;;;;4.90;2.50;;;;;;;;;;5010344;28;20041;-88
2021/06/07 15:22:31;;;;;;;5.10;2.60;;;;;;;;;;5007161;28;20084;-88
2021/06/07 15:24:57;;;;;;;4.45;3.05;;;;;;;;;;5028122;28;20025;-87
2021/06/07 15:27:24;;;;;;;6.97;3.30;;;;;;;;;;4999018;28;20042;-88
2021/06/07 15:29:50;;;;;;;3.67;2.92;;;;;;;;;;5027364;28;20403;-90
2021/06/07 15:32:16;;;;;;;6.68;2.75;;;;;;;;;;5038794;28;20029;-89
2021/06/07 15:34:42;;;;;;;5.50;2.60;;;;;;;;;;5042501;28;20040;-90
2021/06/07 15:37:08;;;;;;;5.35;2.90;;;;;;;;;;5043693;28;20021;-90
2021/06/07 15:39:34;;;;;;;5.78;2.90;;;;;;;;;;4999637;28;20056;-89
2021/06/07 15:42:00;;;;;;;4.97;2.15;;;;;;;;;;5010415;28;20029;-89
2021/06/07 15:44:26;;;;;;;5.55;2.38;;;;;;;;;;5011484;28;20029;-89
2021/06/07 15:46:52;;;;;;;3.92;2.42;;;;;;;;;;5012185;28;20021;-89
2021/06/07 15:49:18;;;;;;;4.40;2.30;;;;;;;;;;5020035;28;20034;-89
2021/06/07 15:51:44;;;;;;;8.40;2.63;;;;;;;;;;5030753;28;20030;-90
2021/06/07 15:54:11;;;;;;;6.05;2.55;;;;;;;;;;5015966;28;20052;-88
2021/06/07 15:56:37;;;;;;;4.13;2.30;;;;;;;;;;5021551;28;20067;-89
2021/06/07 15:59:03;;;;;;;4.57;2.40;;;;;;;;;;5043987;28;20021;-89
2021/06/07 16:01:29;;;;;;;4.32;2.40;;;;;;;;;;5040731;28;20037;-88
2021/06/07 16:03:56;;;;;;;5.68;2.75;;;;;;;;;;5039038;28;20044;-89
2021/06/07 16:06:22;;;;;;;4.32;2.25;;;;;;;;;;5030812;28;20022;-89
2021/06/07 16:08:49;;;;;;;3.83;2.03;;;;;;;;;;5022793;28;20021;-89
2021/06/07 16:11:15;;;;;;;3.72;2.50;;;;;;;;;;5017122;28;20025;-89
2021/06/07 16:13:42;;;;;;;4.22;2.20;;;;;;;;;;5036540;28;20032;-89
2021/06/07 16:16:13;;;;;;;3.83;2.15;;;;;;;;;;5035678;28;20017;-89
2021/06/07 16:21:16;;;;;;;5.35;2.70;;;;;;;;;;5025684;28;20097;-89